Time;durP1;ratioP1;P1;durP2;ratioP2;P2;SDS_P1;SDS_P2;PMS_P1;PMS_P2;Temp;Humidity;BMP_temperature;BMP_pressure;BME280_temperature;BME280_humidity;BME280_pressure;Samples;Min_cycle;Max_cycle;Signal;HPM_P1;HPM_P2
2020/12/16 00:00:09;;;;;;;49.97;24.83;;;9.20;99.90;;;;;;5029718;28;20897;-47
2020/12/16 00:02:39;;;;;;;49.23;27.23;;;9.20;99.90;;;;;;5029163;28;20588;-46
2020/12/16 00:05:10;;;;;;;45.30;23.17;;;9.10;99.90;;;;;;5029556;28;20237;-47
2020/12/16 00:07:39;;;;;;;48.33;27.50;;;9.20;99.90;;;;;;5026784;28;20233;-46
2020/12/16 00:10:10;;;;;;;47.30;26.97;;;9.10;99.90;;;;;;5029769;28;20232;-46
2020/12/16 00:12:39;;;;;;;43.40;24.23;;;9.00;99.90;;;;;;5028799;28;20610;-46
2020/12/16 00:15:07;;;;;;;41.37;25.43;;;8.90;99.90;;;;;;5029487;28;20761;-47
2020/12/16 00:17:35;;;;;;;43.30;23.90;;;8.80;99.90;;;;;;5029502;28;20232;-46
2020/12/16 00:20:06;;;;;;;41.33;23.53;;;9.00;99.90;;;;;;5029329;28;20598;-46
2020/12/16 00:22:38;;;;;;;42.93;24.83;;;9.00;99.90;;;;;;5028509;28;20236;-48
2020/12/16 00:25:08;;;;;;;45.13;24.93;;;9.00;99.90;;;;;;5029899;28;20224;-46
2020/12/16 00:27:36;;;;;;;46.50;22.90;;;9.10;99.90;;;;;;5023411;28;20290;-46
2020/12/16 00:30:05;;;;;;;46.37;25.60;;;9.20;99.90;;;;;;5029685;28;20233;-46
2020/12/16 00:32:37;;;;;;;50.37;24.60;;;9.10;99.90;;;;;;5042706;28;20232;-46
2020/12/16 00:35:07;;;;;;;47.90;25.23;;;9.20;99.90;;;;;;5029315;28;20288;-46
2020/12/16 00:37:35;;;;;;;49.37;26.50;;;9.10;99.90;;;;;;5028902;28;20278;-46
2020/12/16 00:40:04;;;;;;;44.83;24.63;;;9.30;99.90;;;;;;5027925;28;20291;-47
2020/12/16 00:42:32;;;;;;;44.83;23.07;;;9.10;99.90;;;;;;5028038;28;20228;-46
2020/12/16 00:45:00;;;;;;;44.80;25.67;;;9.10;99.90;;;;;;5029133;28;20240;-47
2020/12/16 00:47:27;;;;;;;48.27;25.43;;;9.00;99.90;;;;;;5028473;28;20244;-46
2020/12/16 00:49:55;;;;;;;43.80;24.57;;;9.10;99.90;;;;;;5011328;28;20256;-46
2020/12/16 00:52:27;;;;;;;50.57;25.60;;;9.10;99.90;;;;;;5028487;28;20247;-46
2020/12/16 00:54:56;;;;;;;47.20;25.27;;;9.20;99.90;;;;;;5017404;28;20237;-47
2020/12/16 00:57:23;;;;;;;39.80;24.20;;;9.40;99.90;;;;;;5009582;28;20237;-47
2020/12/16 00:59:51;;;;;;;44.37;23.13;;;9.20;99.90;;;;;;5009170;28;20249;-46
2020/12/16 01:02:19;;;;;;;42.50;22.97;;;9.30;99.90;;;;;;5026866;28;20595;-46
2020/12/16 01:04:46;;;;;;;39.43;23.90;;;9.40;99.90;;;;;;5026920;28;20232;-46
2020/12/16 01:07:14;;;;;;;39.07;24.50;;;9.10;99.90;;;;;;5027227;28;20247;-46
2020/12/16 01:09:42;;;;;;;37.33;22.53;;;8.90;99.90;;;;;;5027300;28;20236;-46
2020/12/16 01:12:10;;;;;;;42.50;24.10;;;8.80;99.90;;;;;;5010128;28;20237;-46
2020/12/16 01:14:39;;;;;;;39.77;23.80;;;8.80;99.90;;;;;;5028605;28;20282;-46
2020/12/16 01:17:06;;;;;;;41.77;23.97;;;8.80;99.90;;;;;;5028449;28;20323;-47
2020/12/16 01:19:36;;;;;;;37.40;23.70;;;8.70;99.90;;;;;;5023159;28;20316;-46
2020/12/16 01:22:04;;;;;;;41.80;24.67;;;8.70;99.90;;;;;;5023097;28;20225;-47
2020/12/16 01:24:31;;;;;;;39.53;23.93;;;8.60;99.90;;;;;;5028294;28;20236;-46
2020/12/16 01:27:01;;;;;;;44.50;24.60;;;8.60;99.90;;;;;;5010650;28;20236;-47
2020/12/16 01:29:32;;;;;;;42.43;23.67;;;8.70;99.90;;;;;;5010762;28;20331;-46
2020/12/16 01:31:59;;;;;;;46.07;25.20;;;8.70;99.90;;;;;;5029256;28;20236;-47
2020/12/16 01:34:31;;;;;;;43.43;24.63;;;8.70;99.90;;;;;;5028372;28;20581;-46
2020/12/16 01:37:04;;;;;;;42.63;24.50;;;8.70;99.90;;;;;;5007709;28;20236;-46
2020/12/16 01:39:37;;;;;;;42.47;24.73;;;8.60;99.90;;;;;;4991165;28;20240;-46
2020/12/16 01:42:07;;;;;;;45.97;23.73;;;8.60;99.90;;;;;;5004442;28;20319;-46
2020/12/16 01:44:34;;;;;;;46.33;25.80;;;8.90;99.90;;;;;;5010608;28;20319;-46
2020/12/16 01:47:06;;;;;;;47.33;26.73;;;8.80;99.90;;;;;;5010374;28;20232;-46
2020/12/16 01:49:39;;;;;;;45.80;25.20;;;8.70;99.90;;;;;;5010191;28;20232;-46
2020/12/16 01:52:08;;;;;;;42.80;25.27;;;8.90;99.90;;;;;;5027268;28;20596;-46
2020/12/16 01:54:48;;;;;;;40.63;23.27;;;8.70;99.90;;;;;;5030293;28;20239;-48
2020/12/16 01:57:22;;;;;;;40.37;25.17;;;8.70;99.90;;;;;;5027565;28;20349;-46
2020/12/16 02:00:00;;;;;;;44.40;25.80;;;8.60;99.90;;;;;;5031782;28;20691;-47
2020/12/16 02:03:01;;;;;;;40.93;24.63;;;8.60;99.90;;;;;;5011630;28;20614;-46
2020/12/16 02:05:41;;;;;;;43.60;25.87;;;8.70;99.90;;;;;;5020893;28;20260;-46
2020/12/16 02:08:16;;;;;;;44.03;25.30;;;8.60;99.90;;;;;;5013995;28;20293;-46
2020/12/16 02:10:44;;;;;;;47.57;26.17;;;8.60;99.90;;;;;;5029755;28;20240;-48
2020/12/16 02:13:13;;;;;;;42.23;25.43;;;8.60;99.90;;;;;;5013363;28;20247;-46
2020/12/16 02:15:45;;;;;;;47.27;26.70;;;8.50;99.90;;;;;;5029860;28;20240;-46
2020/12/16 02:18:16;;;;;;;44.17;26.40;;;8.60;99.90;;;;;;5027916;28;20699;-46
2020/12/16 02:20:47;;;;;;;47.30;26.40;;;8.50;99.90;;;;;;5014106;28;20651;-46
2020/12/16 02:23:19;;;;;;;45.37;26.17;;;8.50;99.90;;;;;;5026347;28;20255;-46
2020/12/16 02:25:49;;;;;;;48.37;27.03;;;8.50;99.90;;;;;;5011610;28;20704;-46
2020/12/16 02:28:17;;;;;;;45.03;26.50;;;8.50;99.90;;;;;;5011676;28;20622;-46
2020/12/16 02:30:47;;;;;;;47.27;26.63;;;8.60;99.90;;;;;;5013807;28;20248;-46
2020/12/16 02:33:23;;;;;;;48.27;27.20;;;8.50;99.90;;;;;;5030290;28;20241;-46
2020/12/16 02:35:59;;;;;;;47.40;26.73;;;8.60;99.90;;;;;;5031534;28;20237;-46
2020/12/16 02:38:47;;;;;;;47.97;27.30;;;8.60;99.90;;;;;;5030103;28;20296;-46
2020/12/16 02:41:19;;;;;;;47.03;28.10;;;8.60;99.90;;;;;;5012928;28;20239;-46
2020/12/16 02:43:47;;;;;;;43.07;25.67;;;8.60;99.90;;;;;;5029318;28;20935;-47
2020/12/16 02:46:15;;;;;;;48.63;27.10;;;8.50;99.90;;;;;;5031031;28;20289;-46
2020/12/16 02:48:43;;;;;;;48.37;27.57;;;8.60;99.90;;;;;;5029462;28;20240;-46
2020/12/16 02:51:11;;;;;;;44.20;27.33;;;8.60;99.90;;;;;;5024937;28;20282;-46
2020/12/16 02:53:38;;;;;;;45.77;25.90;;;8.50;99.90;;;;;;5029463;28;20781;-46
2020/12/16 02:56:21;;;;;;;37.12;21.36;;;8.50;99.90;;;;;;971924;28;10002163;-46
2020/12/16 02:58:57;;;;;;;45.23;27.07;;;8.50;99.90;;;;;;5030275;28;20252;-46
2020/12/16 03:01:24;;;;;;;42.13;25.20;;;8.50;99.90;;;;;;5025297;28;20252;-46
2020/12/16 03:04:06;;;;;;;41.67;26.27;;;8.50;99.90;;;;;;4993209;28;20323;-46
2020/12/16 03:06:57;;;;;;;45.73;25.83;;;8.50;99.90;;;;;;5029764;28;20283;-46
2020/12/16 03:09:34;;;;;;;43.90;24.20;;;8.60;99.90;;;;;;5025736;28;20927;-46
2020/12/16 03:12:28;;;;;;;42.43;25.57;;;8.60;99.90;;;;;;5028982;28;20240;-46
2020/12/16 03:14:56;;;;;;;40.57;24.90;;;8.50;99.90;;;;;;5029652;28;20241;-46
2020/12/16 03:17:26;;;;;;;41.80;24.57;;;8.50;99.90;;;;;;5014798;28;20302;-46
2020/12/16 03:20:01;;;;;;;41.83;24.13;;;8.50;99.90;;;;;;5004235;28;20326;-46
2020/12/16 03:22:33;;;;;;;42.27;24.77;;;8.50;99.90;;;;;;5009152;28;20237;-46
2020/12/16 03:25:17;;;;;;;39.40;23.90;;;8.40;99.90;;;;;;5008872;28;20237;-46
2020/12/16 03:28:04;;;;;;;39.57;23.43;;;8.40;99.90;;;;;;5012002;28;20742;-46
2020/12/16 03:30:54;;;;;;;42.83;23.63;;;8.40;99.90;;;;;;5029763;28;20232;-46
2020/12/16 03:33:49;;;;;;;41.50;23.73;;;8.40;99.90;;;;;;5028429;28;20248;-46
2020/12/16 03:36:46;;;;;;;41.20;24.33;;;8.40;99.90;;;;;;5013392;28;20256;-46
2020/12/16 03:39:13;;;;;;;45.83;26.30;;;8.40;99.90;;;;;;5022052;28;20278;-47
2020/12/16 03:42:07;;;;;;;44.77;23.77;;;8.40;99.90;;;;;;5026037;28;20267;-46
2020/12/16 03:44:36;;;;;;;48.33;26.00;;;8.60;99.90;;;;;;5028024;28;20251;-47
2020/12/16 03:47:04;;;;;;;43.57;23.90;;;8.50;99.90;;;;;;5012623;28;20247;-47
2020/12/16 03:49:32;;;;;;;44.53;25.47;;;8.50;99.90;;;;;;5025113;28;20241;-46
2020/12/16 03:52:00;;;;;;;44.70;24.90;;;8.40;99.90;;;;;;5025021;28;20234;-46
2020/12/16 03:54:52;;;;;;;48.60;25.23;;;8.40;99.90;;;;;;5024701;28;20598;-46
2020/12/16 03:57:48;;;;;;;47.60;25.63;;;8.40;99.90;;;;;;5027966;28;20326;-46
2020/12/16 04:00:31;;;;;;;48.13;25.37;;;8.40;99.90;;;;;;5010110;28;20228;-46
2020/12/16 04:03:04;;;;;;;42.13;24.13;;;8.40;99.90;;;;;;5027483;28;20514;-46
2020/12/16 04:05:53;;;;;;;43.97;23.77;;;8.40;99.90;;;;;;5008279;28;20595;-46
2020/12/16 04:08:21;;;;;;;46.27;25.90;;;8.40;99.90;;;;;;5007523;28;20372;-46
2020/12/16 04:11:21;;;;;;;40.37;23.77;;;8.40;99.90;;;;;;4976537;28;20276;-46
2020/12/16 04:13:59;;;;;;;47.27;25.57;;;8.40;99.90;;;;;;5004781;28;20265;-46
2020/12/16 04:16:31;;;;;;;51.07;26.67;;;8.40;99.90;;;;;;4989811;28;20244;-47
2020/12/16 04:19:07;;;;;;;51.33;27.20;;;8.40;99.90;;;;;;5008173;28;20229;-46
2020/12/16 04:21:35;;;;;;;52.60;26.97;;;8.40;99.90;;;;;;5023455;28;20309;-46
2020/12/16 04:24:04;;;;;;;52.23;27.93;;;8.70;99.90;;;;;;5008787;28;20602;-46
2020/12/16 04:26:52;;;;;;;53.00;27.20;;;8.60;99.90;;;;;;4981392;28;20292;-46
2020/12/16 04:29:19;;;;;;;49.10;26.87;;;8.50;99.90;;;;;;4990405;28;20237;-46
2020/12/16 04:31:52;;;;;;;55.90;33.92;;;8.40;99.90;;;;;;4986884;28;20444;-46
2020/12/16 04:34:24;;;;;;;51.80;28.50;;;8.40;99.90;;;;;;5010862;28;20228;-47
2020/12/16 04:36:53;;;;;;;53.63;28.40;;;8.40;99.90;;;;;;5021419;28;20346;-46
2020/12/16 04:39:23;;;;;;;53.23;27.40;;;8.40;99.90;;;;;;5021391;28;20241;-46
2020/12/16 04:41:52;;;;;;;52.60;27.97;;;8.70;99.90;;;;;;5004061;28;20245;-46
2020/12/16 04:44:22;;;;;;;51.07;27.67;;;8.50;99.90;;;;;;5015894;28;20287;-46
2020/12/16 04:46:57;;;;;;;51.10;29.20;;;8.50;99.90;;;;;;5009003;28;20229;-46
2020/12/16 04:49:32;;;;;;;49.60;27.87;;;8.40;99.90;;;;;;5024401;28;20688;-46
2020/12/16 04:52:00;;;;;;;55.33;28.50;;;8.40;99.90;;;;;;5024366;28;20318;-46
2020/12/16 04:54:49;;;;;;;54.27;29.01;;;8.40;99.90;;;;;;2961797;28;10004082;-46
2020/12/16 04:57:23;;;;;;;52.97;28.37;;;8.40;99.90;;;;;;3275963;28;10001724;-47
2020/12/16 04:59:55;;;;;;;52.57;27.83;;;8.40;99.90;;;;;;5004191;28;20485;-46
2020/12/16 05:02:51;;;;;;;52.60;27.80;;;8.30;99.90;;;;;;5007241;28;20243;-46
2020/12/16 05:05:44;;;;;;;52.80;28.27;;;8.30;99.90;;;;;;5007537;28;20232;-46
2020/12/16 05:08:14;;;;;;;52.07;27.73;;;8.30;99.90;;;;;;5028474;28;20287;-47
2020/12/16 05:10:44;;;;;;;51.73;27.20;;;8.30;99.90;;;;;;5026830;28;20574;-48
2020/12/16 05:13:13;;;;;;;51.27;27.63;;;8.30;99.90;;;;;;5024541;28;20335;-46
2020/12/16 05:15:43;;;;;;;51.47;28.57;;;8.30;99.90;;;;;;5027531;28;20770;-46
2020/12/16 05:18:17;;;;;;;54.67;28.70;;;8.30;99.90;;;;;;5028227;28;20707;-46
2020/12/16 05:20:48;;;;;;;49.40;27.40;;;8.30;99.90;;;;;;5027382;28;20994;-46
2020/12/16 05:23:17;;;;;;;50.30;28.90;;;8.30;99.90;;;;;;5023857;28;20283;-46
2020/12/16 05:25:59;;;;;;;56.60;29.10;;;8.20;99.90;;;;;;5027537;28;20231;-46
2020/12/16 05:28:29;;;;;;;50.57;29.07;;;8.20;99.90;;;;;;5025496;28;20244;-46
2020/12/16 05:30:59;;;;;;;52.60;28.67;;;8.10;99.90;;;;;;5003610;28;20290;-46
2020/12/16 05:33:27;;;;;;;53.23;28.63;;;8.00;99.90;;;;;;5017530;28;20991;-46
2020/12/16 05:35:55;;;;;;;63.23;29.70;;;8.00;99.90;;;;;;5025558;28;20244;-46
2020/12/16 05:38:24;;;;;;;59.50;30.57;;;7.90;99.90;;;;;;5027562;28;20232;-46
2020/12/16 05:40:52;;;;;;;56.40;29.43;;;7.90;99.90;;;;;;5022750;28;20243;-46
2020/12/16 05:43:23;;;;;;;56.60;31.07;;;7.90;99.90;;;;;;5028236;28;20228;-46
2020/12/16 05:45:55;;;;;;;57.17;29.50;;;8.00;99.90;;;;;;5025910;28;20239;-46
2020/12/16 05:48:29;;;;;;;58.30;30.40;;;8.10;99.90;;;;;;5028502;28;20280;-46
2020/12/16 05:50:59;;;;;;;50.60;28.03;;;7.90;99.90;;;;;;5023724;28;20235;-46
2020/12/16 05:53:28;;;;;;;47.97;27.33;;;7.80;99.90;;;;;;5027610;28;20290;-46
2020/12/16 05:55:58;;;;;;;47.80;27.30;;;7.80;99.90;;;;;;5028107;28;20310;-46
2020/12/16 05:58:28;;;;;;;51.93;26.97;;;7.70;99.90;;;;;;5028341;28;20224;-46
2020/12/16 06:00:59;;;;;;;50.07;27.80;;;7.70;99.90;;;;;;5026283;28;20328;-46
2020/12/16 06:03:30;;;;;;;51.50;28.70;;;7.70;99.90;;;;;;5024031;28;20240;-46
2020/12/16 06:05:59;;;;;;;51.57;25.43;;;7.70;99.90;;;;;;5024998;28;20298;-46
2020/12/16 06:08:31;;;;;;;60.60;29.90;;;7.80;99.90;;;;;;5026372;28;20643;-46
2020/12/16 06:10:59;;;;;;;54.87;28.00;;;7.70;99.90;;;;;;5009295;28;20241;-46
2020/12/16 06:13:26;;;;;;;52.60;28.83;;;7.60;99.90;;;;;;5021454;28;20224;-46
2020/12/16 06:15:57;;;;;;;53.60;29.50;;;7.50;99.90;;;;;;5025059;28;20777;-46
2020/12/16 06:18:29;;;;;;;53.60;30.17;;;7.50;99.90;;;;;;5025641;28;20639;-46
2020/12/16 06:20:58;;;;;;;52.50;29.20;;;7.50;99.90;;;;;;5024578;28;20638;-46
2020/12/16 06:23:31;;;;;;;48.90;27.10;;;7.40;99.90;;;;;;5024785;28;20625;-46
2020/12/16 06:26:12;;;;;;;50.30;27.07;;;7.40;99.90;;;;;;5024847;28;20272;-46
2020/12/16 06:28:41;;;;;;;52.60;28.67;;;7.30;99.90;;;;;;5022887;28;20228;-45
2020/12/16 06:31:32;;;;;;;54.00;28.13;;;7.30;99.90;;;;;;5024090;28;20244;-46
2020/12/16 06:34:03;;;;;;;48.50;27.10;;;7.30;99.90;;;;;;5017556;28;20248;-46
2020/12/16 06:36:35;;;;;;;51.83;27.77;;;7.30;99.90;;;;;;5024283;28;20258;-46
2020/12/16 06:39:14;;;;;;;52.67;26.93;;;7.30;99.90;;;;;;5025284;28;20327;-46
2020/12/16 06:41:52;;;;;;;50.97;27.30;;;7.30;99.90;;;;;;5027339;28;20247;-46
2020/12/16 06:44:19;;;;;;;51.53;27.97;;;7.30;99.90;;;;;;5028456;28;20232;-46
2020/12/16 06:46:52;;;;;;;52.17;26.57;;;7.30;99.90;;;;;;5028396;28;20746;-46
2020/12/16 06:49:47;;;;;;;47.17;27.37;;;7.30;99.90;;;;;;5028804;28;20228;-46
2020/12/16 06:52:28;;;;;;;53.77;28.33;;;7.30;99.90;;;;;;4971691;28;20237;-46
2020/12/16 06:55:07;;;;;;;49.90;26.83;;;7.60;99.90;;;;;;5029217;28;20236;-46
2020/12/16 06:57:47;;;;;;;50.63;27.73;;;7.40;99.90;;;;;;5029584;28;21049;-46
2020/12/16 07:00:20;;;;;;;53.73;29.00;;;7.40;99.90;;;;;;5026767;28;20235;-46
2020/12/16 07:02:48;;;;;;;52.87;28.83;;;7.40;99.90;;;;;;5029669;28;20695;-46
2020/12/16 07:05:37;;;;;;;50.53;26.53;;;7.30;99.90;;;;;;5030051;28;20243;-46
2020/12/16 07:08:05;;;;;;;52.40;27.00;;;7.30;99.90;;;;;;5030666;28;20233;-46
2020/12/16 07:10:49;;;;;;;52.27;28.07;;;7.30;99.90;;;;;;5029739;28;20251;-46
2020/12/16 07:13:27;;;;;;;51.23;27.40;;;7.30;99.90;;;;;;5028610;28;20228;-46
2020/12/16 07:16:02;;;;;;;54.87;29.17;;;7.20;99.90;;;;;;5027202;28;20236;-46
2020/12/16 07:18:54;;;;;;;50.77;28.47;;;7.20;99.90;;;;;;5022778;28;20640;-46
2020/12/16 07:21:29;;;;;;;59.00;30.03;;;7.20;99.90;;;;;;5013095;28;20264;-46
2020/12/16 07:24:08;;;;;;;57.57;30.03;;;7.20;99.90;;;;;;5029079;28;20293;-46
2020/12/16 07:26:53;;;;;;;54.43;29.73;;;7.10;99.90;;;;;;5027096;28;20253;-46
2020/12/16 07:29:28;;;;;;;55.27;28.63;;;7.10;99.90;;;;;;5028808;28;20333;-46
2020/12/16 07:32:08;;;;;;;55.03;29.67;;;7.00;99.90;;;;;;5026746;28;20267;-46
2020/12/16 07:34:45;;;;;;;59.47;30.27;;;7.00;99.90;;;;;;5025263;28;20286;-46
2020/12/16 07:37:16;;;;;;;57.87;29.53;;;6.90;99.90;;;;;;5027201;28;20634;-46
2020/12/16 07:39:47;;;;;;;57.53;30.03;;;6.90;99.90;;;;;;5027842;28;20627;-46
2020/12/16 07:42:27;;;;;;;64.83;30.90;;;6.90;99.90;;;;;;5028138;28;20712;-46
2020/12/16 07:44:56;;;;;;;55.80;28.63;;;6.80;99.90;;;;;;5027033;28;20239;-46
2020/12/16 07:47:23;;;;;;;54.17;28.30;;;6.80;99.90;;;;;;5030425;28;20687;-46
2020/12/16 07:49:52;;;;;;;60.23;29.23;;;6.80;99.90;;;;;;5027271;28;20241;-46
2020/12/16 07:52:24;;;;;;;64.63;33.83;;;6.70;99.90;;;;;;5028363;28;20320;-46
2020/12/16 07:54:52;;;;;;;59.00;32.53;;;6.70;99.90;;;;;;5029996;28;20248;-47
2020/12/16 07:57:28;;;;;;;61.07;31.63;;;6.70;99.90;;;;;;5029650;28;20741;-46
2020/12/16 07:59:55;;;;;;;61.63;31.23;;;6.70;99.90;;;;;;5028962;28;20637;-46
2020/12/16 08:02:22;;;;;;;55.87;30.17;;;6.70;99.90;;;;;;5028820;28;20241;-47
2020/12/16 08:04:56;;;;;;;60.03;31.47;;;6.70;99.90;;;;;;5028983;28;20256;-46
2020/12/16 08:07:24;;;;;;;61.80;31.63;;;6.70;99.90;;;;;;5028757;28;20248;-46
2020/12/16 08:09:56;;;;;;;54.73;29.87;;;6.70;99.90;;;;;;5023266;28;20252;-46
2020/12/16 08:12:26;;;;;;;61.07;30.40;;;6.60;99.90;;;;;;5006168;28;20245;-46
2020/12/16 08:15:07;;;;;;;52.07;29.57;;;6.60;99.90;;;;;;5024734;28;20775;-46
2020/12/16 08:17:38;;;;;;;54.60;29.63;;;6.60;99.90;;;;;;5026231;28;20591;-46
2020/12/16 08:20:13;;;;;;;55.53;30.47;;;6.70;99.90;;;;;;5023490;28;20287;-46
2020/12/16 08:22:43;;;;;;;57.00;30.27;;;6.60;99.90;;;;;;5025580;28;20240;-46
2020/12/16 08:25:11;;;;;;;69.70;29.00;;;6.70;99.90;;;;;;5025497;28;20770;-46
2020/12/16 08:27:44;;;;;;;65.80;27.33;;;6.70;99.90;;;;;;5026496;28;20236;-46
2020/12/16 08:30:16;;;;;;;81.53;25.87;;;6.70;99.90;;;;;;5025315;28;20235;-46
2020/12/16 08:32:52;;;;;;;61.00;25.63;;;6.70;99.90;;;;;;5025485;28;20244;-46
2020/12/16 08:35:28;;;;;;;117.40;27.07;;;6.80;99.90;;;;;;5024827;28;20295;-46
2020/12/16 08:38:03;;;;;;;45.23;25.60;;;6.80;99.90;;;;;;5024186;28;20236;-46
2020/12/16 08:40:31;;;;;;;47.13;25.10;;;6.80;99.90;;;;;;5015739;28;20356;-47
2020/12/16 08:43:22;;;;;;;62.07;23.33;;;6.80;99.90;;;;;;5004678;28;20292;-46
2020/12/16 08:45:59;;;;;;;84.60;23.20;;;6.90;99.90;;;;;;5006572;28;20269;-46
2020/12/16 08:48:40;;;;;;;46.77;23.87;;;6.90;99.90;;;;;;5025783;28;20596;-46
2020/12/16 08:51:10;;;;;;;97.80;23.00;;;6.90;99.90;;;;;;5005149;28;20259;-46
2020/12/16 08:53:52;;;;;;;58.40;22.50;;;6.90;99.90;;;;;;5018217;28;20242;-46
2020/12/16 08:56:25;;;;;;;38.90;23.20;;;6.90;99.90;;;;;;5028723;28;20234;-46
2020/12/16 08:59:11;;;;;;;49.70;23.20;;;6.90;99.90;;;;;;5026795;28;20663;-47
2020/12/16 09:01:41;;;;;;;70.10;24.47;;;6.90;99.90;;;;;;5021169;28;20231;-46
2020/12/16 09:04:09;;;;;;;48.07;23.97;;;6.90;99.90;;;;;;5008257;28;20237;-47
2020/12/16 09:06:37;;;;;;;134.47;26.23;;;7.00;99.90;;;;;;5006232;28;20319;-46
2020/12/16 09:09:23;;;;;;;132.47;27.30;;;7.00;99.90;;;;;;5020993;28;20327;-46
2020/12/16 09:11:50;;;;;;;54.60;25.47;;;7.00;99.90;;;;;;5018588;28;20298;-46
2020/12/16 09:14:18;;;;;;;79.13;25.73;;;7.00;99.90;;;;;;5033265;28;20592;-46
2020/12/16 09:16:47;;;;;;;75.73;27.07;;;7.00;99.90;;;;;;5045542;28;20643;-46
2020/12/16 09:19:19;;;;;;;51.27;26.57;;;7.00;99.90;;;;;;5025177;28;20650;-46
2020/12/16 09:21:47;;;;;;;60.07;27.63;;;7.10;99.90;;;;;;5022397;28;20236;-46
2020/12/16 09:24:20;;;;;;;62.63;27.17;;;7.10;99.90;;;;;;5025478;28;20240;-46
2020/12/16 09:26:50;;;;;;;89.20;28.50;;;7.10;99.90;;;;;;5025365;28;20248;-46
2020/12/16 09:29:25;;;;;;;52.60;27.67;;;7.10;99.90;;;;;;5025539;28;20707;-47
2020/12/16 09:32:06;;;;;;;67.30;28.13;;;7.10;99.90;;;;;;5023779;28;20244;-46
2020/12/16 09:34:38;;;;;;;53.10;26.43;;;7.10;99.90;;;;;;5023360;28;20691;-46
2020/12/16 09:37:14;;;;;;;50.47;25.03;;;7.20;99.90;;;;;;5007824;28;20252;-46
2020/12/16 09:39:42;;;;;;;53.57;25.27;;;7.20;99.90;;;;;;5005258;28;20367;-46
2020/12/16 09:42:12;;;;;;;46.37;24.30;;;7.10;99.90;;;;;;5003003;28;20651;-46
2020/12/16 09:44:40;;;;;;;56.63;25.03;;;7.10;99.90;;;;;;5005352;28;20362;-47
2020/12/16 09:47:13;;;;;;;46.97;24.17;;;7.10;99.90;;;;;;5007781;28;20245;-46
2020/12/16 09:49:42;;;;;;;47.43;22.90;;;7.10;99.90;;;;;;5015501;28;20240;-46
2020/12/16 09:52:29;;;;;;;44.23;23.07;;;7.10;99.90;;;;;;5024213;28;20232;-46
2020/12/16 09:54:57;;;;;;;50.40;23.97;;;7.10;99.90;;;;;;5025104;28;20704;-46
2020/12/16 09:57:26;;;;;;;43.57;23.73;;;7.10;99.90;;;;;;5023792;28;20729;-46
2020/12/16 10:00:00;;;;;;;48.53;24.07;;;7.10;99.90;;;;;;5024922;28;20291;-46
2020/12/16 10:02:27;;;;;;;51.50;24.33;;;7.10;99.90;;;;;;5024096;28;20327;-46
2020/12/16 10:04:55;;;;;;;53.63;25.10;;;7.10;99.90;;;;;;5035563;28;20290;-46
2020/12/16 10:07:22;;;;;;;58.60;25.47;;;7.10;99.90;;;;;;5025270;28;20708;-46
2020/12/16 10:09:55;;;;;;;52.07;24.60;;;7.10;99.90;;;;;;5024680;28;20240;-47
2020/12/16 10:12:23;;;;;;;64.63;26.67;;;7.10;99.90;;;;;;5024393;28;20248;-46
2020/12/16 10:14:51;;;;;;;58.17;25.70;;;7.10;99.90;;;;;;5027257;28;20302;-46
2020/12/16 10:17:24;;;;;;;57.20;24.97;;;7.20;99.90;;;;;;5028442;28;20650;-46
2020/12/16 10:19:53;;;;;;;73.10;28.83;;;7.20;99.90;;;;;;5027673;28;20240;-46
2020/12/16 10:22:21;;;;;;;71.87;27.40;;;7.20;99.90;;;;;;5027493;28;20247;-46
2020/12/16 10:24:48;;;;;;;72.87;28.30;;;7.20;99.90;;;;;;5028421;28;20240;-46
2020/12/16 10:27:18;;;;;;;86.60;30.20;;;7.30;99.90;;;;;;5028586;28;20290;-46
2020/12/16 10:29:45;;;;;;;83.40;31.00;;;7.30;99.90;;;;;;5028003;28;20240;-46
2020/12/16 10:32:14;;;;;;;86.40;30.97;;;7.30;99.90;;;;;;5027646;28;20278;-46
2020/12/16 10:34:42;;;;;;;89.60;32.60;;;7.30;99.90;;;;;;5028064;28;20294;-46
2020/12/16 10:37:09;;;;;;;87.43;31.60;;;7.40;99.90;;;;;;5028518;28;20263;-46
2020/12/16 10:39:37;;;;;;;93.83;32.70;;;7.40;99.90;;;;;;5028172;28;20791;-46
2020/12/16 10:42:04;;;;;;;95.00;32.67;;;7.40;99.90;;;;;;5027477;28;20286;-46
2020/12/16 10:44:31;;;;;;;97.73;34.77;;;7.40;99.90;;;;;;5028314;28;20711;-46
2020/12/16 10:46:59;;;;;;;96.97;34.23;;;7.50;99.90;;;;;;5026775;28;20298;-46
2020/12/16 10:49:28;;;;;;;96.63;34.63;;;7.50;99.90;;;;;;5026744;28;20781;-46
2020/12/16 10:51:56;;;;;;;105.40;34.77;;;7.50;99.90;;;;;;5025899;28;20584;-46
2020/12/16 10:54:23;;;;;;;99.80;33.63;;;7.50;99.90;;;;;;5027806;28;20342;-46
2020/12/16 10:56:55;;;;;;;104.17;34.80;;;7.60;99.90;;;;;;5028425;28;20314;-46
2020/12/16 10:59:23;;;;;;;97.77;34.47;;;7.60;99.90;;;;;;5028202;28;20637;-46
2020/12/16 11:01:51;;;;;;;99.67;34.97;;;7.60;99.90;;;;;;5026539;28;20240;-46
2020/12/16 11:04:19;;;;;;;108.47;35.97;;;7.60;99.90;;;;;;5024708;28;20241;-46
2020/12/16 11:06:49;;;;;;;106.97;37.17;;;7.60;99.90;;;;;;5028160;28;20240;-46
2020/12/16 11:09:18;;;;;;;115.07;36.63;;;7.60;99.90;;;;;;5027923;28;20302;-47
2020/12/16 11:11:48;;;;;;;106.80;37.77;;;7.60;99.90;;;;;;5027011;28;20224;-46
2020/12/16 11:14:16;;;;;;;113.90;39.70;;;7.70;99.90;;;;;;5027067;28;20637;-46
2020/12/16 11:16:44;;;;;;;116.70;40.33;;;7.70;99.90;;;;;;5022249;28;20229;-46
2020/12/16 11:19:15;;;;;;;104.40;38.17;;;7.80;99.90;;;;;;5026826;28;20572;-46
2020/12/16 11:21:45;;;;;;;107.67;37.87;;;7.80;99.90;;;;;;5026503;28;20255;-46
2020/12/16 11:24:15;;;;;;;97.70;36.73;;;7.70;99.90;;;;;;5027096;28;20251;-46
2020/12/16 11:26:46;;;;;;;92.50;34.63;;;7.80;99.90;;;;;;5026694;28;20255;-46
2020/12/16 11:29:16;;;;;;;93.50;36.27;;;7.80;99.90;;;;;;5024460;28;20236;-46
2020/12/16 11:31:45;;;;;;;97.37;37.93;;;7.80;99.90;;;;;;5026444;28;20365;-46
2020/12/16 11:34:15;;;;;;;98.03;38.13;;;7.90;99.90;;;;;;5026951;28;20236;-46
2020/12/16 11:36:45;;;;;;;107.53;40.70;;;7.90;99.90;;;;;;5026396;28;20318;-46
2020/12/16 11:39:15;;;;;;;97.67;39.63;;;8.00;99.90;;;;;;5027213;28;20638;-47
2020/12/16 11:41:45;;;;;;;100.50;38.03;;;8.00;99.90;;;;;;5022502;28;20311;-46
2020/12/16 11:44:13;;;;;;;92.23;37.17;;;8.00;99.90;;;;;;5016997;28;20290;-46
2020/12/16 11:46:42;;;;;;;96.77;39.13;;;8.00;99.90;;;;;;5025404;28;20235;-46
2020/12/16 11:49:21;;;;;;;90.97;38.20;;;8.00;99.90;;;;;;5025598;28;20247;-47
2020/12/16 11:51:49;;;;;;;89.67;36.17;;;8.10;99.90;;;;;;5026705;28;20275;-46
2020/12/16 11:54:17;;;;;;;86.40;35.70;;;8.10;99.90;;;;;;5029026;28;20236;-46
2020/12/16 11:56:45;;;;;;;83.77;34.90;;;8.10;99.90;;;;;;5046281;28;20345;-46
2020/12/16 11:59:25;;;;;;;91.57;37.10;;;8.10;99.90;;;;;;5046447;28;20246;-46
2020/12/16 12:01:55;;;;;;;81.10;35.17;;;8.20;99.90;;;;;;5045709;28;20248;-47
2020/12/16 12:04:23;;;;;;;83.57;35.57;;;8.20;99.90;;;;;;5046333;28;20263;-46
2020/12/16 12:06:51;;;;;;;78.87;35.10;;;8.20;99.90;;;;;;5041656;28;20231;-46
2020/12/16 12:09:21;;;;;;;76.97;34.90;;;8.20;99.90;;;;;;5046343;28;20247;-46
2020/12/16 12:11:49;;;;;;;79.33;33.93;;;8.30;99.90;;;;;;5045873;28;20236;-46
2020/12/16 12:14:17;;;;;;;75.03;32.20;;;8.20;99.90;;;;;;5025769;28;20742;-46
2020/12/16 12:16:46;;;;;;;68.97;32.57;;;8.30;99.90;;;;;;5025244;28;21603;-46
2020/12/16 12:19:14;;;;;;;62.53;31.13;;;8.30;99.90;;;;;;5025203;28;20240;-46
2020/12/16 12:21:42;;;;;;;65.60;31.93;;;8.30;99.90;;;;;;5025886;28;20256;-46
2020/12/16 12:24:14;;;;;;;67.60;31.60;;;8.30;99.90;;;;;;5026658;28;20774;-46
2020/12/16 12:26:41;;;;;;;66.60;31.57;;;8.40;99.90;;;;;;5026561;28;20247;-46
2020/12/16 12:29:09;;;;;;;66.23;30.30;;;8.30;99.90;;;;;;5026523;28;20356;-46
2020/12/16 12:31:36;;;;;;;70.60;33.63;;;8.40;99.90;;;;;;5021856;28;20291;-46
2020/12/16 12:34:04;;;;;;;65.93;31.97;;;8.30;99.90;;;;;;5024815;28;20283;-46
2020/12/16 12:36:31;;;;;;;62.17;30.70;;;8.30;99.90;;;;;;5026686;28;20256;-46
2020/12/16 12:38:59;;;;;;;63.67;32.00;;;8.40;99.90;;;;;;5026751;28;20318;-46
2020/12/16 12:41:27;;;;;;;60.73;30.20;;;8.40;99.90;;;;;;5023993;28;20339;-46
2020/12/16 12:43:54;;;;;;;64.07;32.83;;;8.40;99.90;;;;;;5023023;28;20248;-46
2020/12/16 12:46:22;;;;;;;62.63;32.03;;;8.40;99.90;;;;;;5023200;28;20282;-46
2020/12/16 12:48:49;;;;;;;62.37;32.20;;;8.40;99.90;;;;;;5026638;28;20650;-46
2020/12/16 12:51:16;;;;;;;63.43;32.47;;;8.40;99.90;;;;;;5023474;28;20259;-46
2020/12/16 12:53:53;;;;;;;64.40;32.57;;;8.40;99.90;;;;;;5024128;28;20317;-46
2020/12/16 12:56:22;;;;;;;63.97;31.97;;;8.40;99.90;;;;;;5024761;28;20715;-46
2020/12/16 12:58:54;;;;;;;63.87;32.60;;;8.40;99.90;;;;;;5021655;28;20276;-46
2020/12/16 13:01:21;;;;;;;63.20;32.13;;;8.50;99.90;;;;;;5022650;28;20327;-46